Time;durP1;ratioP1;P1;durP2;ratioP2;P2;SDS_P1;SDS_P2;PMS_P1;PMS_P2;Temp;Humidity;BMP_temperature;BMP_pressure;BME280_temperature;BME280_humidity;BME280_pressure;Samples;Min_cycle;Max_cycle;Signal;HPM_P1;HPM_P2
2023/08/19 00:02:12;;;;;;;7.32;6.65;;;21.30;99.90;;;;;;4943854;29;20138;-81
2023/08/19 00:04:38;;;;;;;6.95;6.32;;;21.30;99.90;;;;;;4943557;29;20048;-80
2023/08/19 00:07:04;;;;;;;6.97;6.28;;;21.20;99.90;;;;;;4942352;29;20051;-81
2023/08/19 00:09:31;;;;;;;7.45;6.85;;;21.10;99.90;;;;;;4945019;29;20551;-81
2023/08/19 00:11:57;;;;;;;6.75;6.07;;;21.10;99.90;;;;;;4950050;28;20472;-80
2023/08/19 00:14:23;;;;;;;7.63;6.88;;;21.10;99.90;;;;;;4941345;29;20042;-81
2023/08/19 00:16:49;;;;;;;6.90;6.30;;;21.00;99.90;;;;;;4942569;29;20027;-81
2023/08/19 00:19:14;;;;;;;7.63;6.93;;;21.00;99.90;;;;;;4942470;29;20038;-81
2023/08/19 00:21:40;;;;;;;6.65;6.05;;;21.00;99.90;;;;;;4950704;29;20058;-81
2023/08/19 00:24:06;;;;;;;6.18;5.68;;;21.00;99.90;;;;;;4941263;28;20039;-81
2023/08/19 00:26:32;;;;;;;8.15;6.15;;;21.00;99.90;;;;;;4939152;29;20028;-81
2023/08/19 00:28:57;;;;;;;5.90;5.43;;;21.00;99.90;;;;;;4944787;29;20484;-80
2023/08/19 00:31:24;;;;;;;6.32;5.82;;;21.00;99.90;;;;;;4947923;29;20035;-81
2023/08/19 00:33:50;;;;;;;6.30;5.70;;;20.90;99.90;;;;;;4939241;28;20038;-81
2023/08/19 00:36:16;;;;;;;6.07;5.57;;;20.80;99.90;;;;;;4944738;29;20406;-80
2023/08/19 00:38:41;;;;;;;5.75;5.25;;;20.90;99.90;;;;;;4949931;28;20118;-81
2023/08/19 00:41:07;;;;;;;6.25;5.75;;;20.80;99.90;;;;;;4947923;28;20031;-81
2023/08/19 00:43:35;;;;;;;6.28;5.68;;;20.80;99.90;;;;;;4945408;29;20024;-81
2023/08/19 00:46:02;;;;;;;5.95;5.43;;;20.80;99.90;;;;;;4939041;29;20039;-81
2023/08/19 00:48:30;;;;;;;6.85;6.25;;;20.80;99.90;;;;;;4945244;29;20031;-81
2023/08/19 00:50:58;;;;;;;5.95;5.45;;;20.70;99.90;;;;;;4933478;28;20031;-81
2023/08/19 00:53:24;;;;;;;6.00;5.30;;;20.70;99.90;;;;;;4938962;29;20471;-81
2023/08/19 00:55:51;;;;;;;5.85;5.43;;;20.70;99.90;;;;;;4947355;29;20035;-80
2023/08/19 00:58:18;;;;;;;6.50;5.90;;;20.60;99.90;;;;;;4954069;28;20016;-81
2023/08/19 01:00:46;;;;;;;5.78;5.28;;;20.70;99.90;;;;;;4947952;28;20118;-81
2023/08/19 01:03:12;;;;;;;7.18;6.47;;;20.70;99.90;;;;;;4941860;29;20039;-81
2023/08/19 01:06:16;;;;;;;5.80;5.30;;;20.60;99.90;;;;;;4941443;29;20469;-81
2023/08/19 01:09:11;;;;;;;5.82;5.38;;;20.50;99.90;;;;;;4927071;29;20042;-81
2023/08/19 01:11:58;;;;;;;6.03;5.35;;;20.50;99.90;;;;;;4927840;29;20070;-81
2023/08/19 01:14:33;;;;;;;5.63;5.15;;;20.50;99.90;;;;;;4948010;28;20030;-81
2023/08/19 01:17:01;;;;;;;5.25;4.82;;;20.50;99.90;;;;;;4953217;28;20058;-81
2023/08/19 01:19:31;;;;;;;5.75;5.25;;;20.60;99.90;;;;;;4948027;28;20037;-81
2023/08/19 01:22:09;;;;;;;5.13;4.72;;;20.60;99.90;;;;;;4945803;29;20378;-81
2023/08/19 01:24:40;;;;;;;5.88;5.38;;;20.50;99.90;;;;;;4945868;29;20098;-81
2023/08/19 01:27:06;;;;;;;6.13;5.63;;;20.50;99.90;;;;;;4946347;29;20039;-81
2023/08/19 01:29:32;;;;;;;5.32;4.75;;;20.50;99.90;;;;;;4953808;28;20122;-81
2023/08/19 01:31:59;;;;;;;6.88;5.10;;;20.50;99.90;;;;;;4931793;29;20031;-81
2023/08/19 01:34:25;;;;;;;5.20;4.80;;;20.40;99.90;;;;;;4943786;29;20023;-81
2023/08/19 01:36:59;;;;;;;5.47;4.93;;;20.40;99.90;;;;;;4940058;29;20059;-80
2023/08/19 01:39:26;;;;;;;5.43;5.00;;;20.50;99.90;;;;;;4940718;29;20035;-80
2023/08/19 01:41:52;;;;;;;5.68;5.18;;;20.50;99.90;;;;;;4944916;29;20027;-81
2023/08/19 01:44:18;;;;;;;5.22;4.82;;;20.50;99.90;;;;;;4943048;29;20107;-81
2023/08/19 01:46:43;;;;;;;5.82;5.32;;;20.50;99.90;;;;;;4939980;29;20476;-81
2023/08/19 01:49:09;;;;;;;5.97;5.40;;;20.50;99.90;;;;;;4939291;29;20040;-81
2023/08/19 01:51:35;;;;;;;6.63;5.55;;;20.50;99.90;;;;;;4938731;29;20036;-81
2023/08/19 01:54:00;;;;;;;5.25;4.75;;;20.50;99.90;;;;;;4932304;29;20094;-80
2023/08/19 01:56:26;;;;;;;5.03;4.60;;;20.50;99.90;;;;;;4940584;29;20040;-81
2023/08/19 01:58:52;;;;;;;5.70;5.18;;;20.50;99.90;;;;;;4937453;28;20066;-81
2023/08/19 02:01:18;;;;;;;5.80;5.13;;;20.50;99.90;;;;;;4944144;29;20476;-81
2023/08/19 02:03:43;;;;;;;5.50;5.00;;;20.60;99.90;;;;;;4946856;28;20428;-81
2023/08/19 02:06:09;;;;;;;5.57;5.07;;;20.70;99.90;;;;;;4940945;29;20027;-81
2023/08/19 02:08:35;;;;;;;5.55;5.07;;;20.60;99.90;;;;;;4944123;28;20028;-81
2023/08/19 02:11:02;;;;;;;6.22;5.32;;;20.60;99.90;;;;;;4940595;29;20034;-80
2023/08/19 02:13:28;;;;;;;5.45;5.05;;;20.50;99.90;;;;;;4935583;29;20019;-81
2023/08/19 02:15:53;;;;;;;5.82;5.22;;;20.50;99.90;;;;;;4940244;29;20158;-81
2023/08/19 02:18:22;;;;;;;6.15;5.20;;;20.50;99.90;;;;;;4947805;28;20024;-81
2023/08/19 02:20:47;;;;;;;5.43;4.93;;;20.70;99.90;;;;;;4952223;28;20107;-81
2023/08/19 02:23:13;;;;;;;5.47;4.97;;;20.60;99.90;;;;;;4938794;29;20191;-81
2023/08/19 02:25:40;;;;;;;5.45;4.95;;;20.80;99.90;;;;;;4942633;29;20047;-81
2023/08/19 02:28:05;;;;;;;5.25;4.70;;;20.70;99.90;;;;;;4937931;29;20120;-81
2023/08/19 02:30:32;;;;;;;5.70;4.95;;;20.80;99.90;;;;;;4931319;29;20498;-81
2023/08/19 02:33:04;;;;;;;5.97;5.38;;;20.70;99.90;;;;;;4947143;29;20032;-82
2023/08/19 02:35:30;;;;;;;5.97;4.90;;;20.70;99.90;;;;;;4946323;29;20039;-82
2023/08/19 02:37:56;;;;;;;6.18;5.45;;;20.80;99.90;;;;;;4947015;28;20039;-81
2023/08/19 02:40:21;;;;;;;5.57;5.07;;;20.80;99.90;;;;;;4953585;28;20031;-81
2023/08/19 02:42:47;;;;;;;6.70;4.80;;;20.70;99.90;;;;;;4942708;29;20539;-81
2023/08/19 02:45:13;;;;;;;5.18;4.68;;;20.70;99.90;;;;;;4941017;29;20070;-81
2023/08/19 02:47:38;;;;;;;4.70;4.20;;;20.90;99.90;;;;;;4941548;29;20491;-81
2023/08/19 02:50:05;;;;;;;5.15;4.65;;;21.00;99.90;;;;;;4945923;28;20485;-81
2023/08/19 02:52:31;;;;;;;5.10;4.60;;;21.00;99.90;;;;;;4945905;28;20032;-81
2023/08/19 02:54:57;;;;;;;5.82;5.25;;;21.00;99.90;;;;;;4941598;29;20041;-81
2023/08/19 02:57:23;;;;;;;6.65;5.03;;;21.00;99.90;;;;;;4947549;28;20023;-81
2023/08/19 02:59:48;;;;;;;5.20;4.75;;;21.00;99.90;;;;;;4946593;28;20027;-81
2023/08/19 03:02:14;;;;;;;5.10;4.70;;;21.10;99.90;;;;;;4943473;29;20027;-80
2023/08/19 03:04:40;;;;;;;5.15;4.65;;;21.20;99.90;;;;;;4939379;29;20074;-81
2023/08/19 03:07:06;;;;;;;5.88;4.93;;;21.20;99.90;;;;;;4954679;28;20027;-81
2023/08/19 03:09:31;;;;;;;6.40;4.95;;;21.10;99.90;;;;;;4946176;28;20055;-80
2023/08/19 03:11:57;;;;;;;5.47;3.92;;;21.20;99.90;;;;;;4936969;29;20536;-80
2023/08/19 03:14:23;;;;;;;5.05;4.60;;;21.20;99.90;;;;;;4945523;29;20098;-80
2023/08/19 03:16:49;;;;;;;4.78;4.18;;;21.20;99.90;;;;;;4939911;29;20476;-81
2023/08/19 03:19:15;;;;;;;5.25;4.55;;;21.30;99.90;;;;;;4952884;28;20040;-80
2023/08/19 03:21:42;;;;;;;5.53;4.63;;;21.30;99.90;;;;;;4952425;28;20388;-80
2023/08/19 03:24:07;;;;;;;4.20;3.83;;;21.40;99.90;;;;;;4943448;29;20028;-80
2023/08/19 03:26:33;;;;;;;5.18;3.65;;;21.30;99.90;;;;;;4946797;28;20093;-80
2023/08/19 03:28:59;;;;;;;4.40;3.90;;;21.40;99.90;;;;;;4936176;29;20039;-81
2023/08/19 03:31:25;;;;;;;4.65;4.00;;;21.40;99.90;;;;;;4945080;29;20496;-81
2023/08/19 03:33:53;;;;;;;4.57;3.67;;;21.40;99.90;;;;;;4943428;28;20509;-81
2023/08/19 03:36:19;;;;;;;4.25;3.72;;;21.50;99.90;;;;;;4953988;28;20027;-80
2023/08/19 03:38:45;;;;;;;4.20;3.80;;;21.50;99.90;;;;;;4945995;28;20483;-81
2023/08/19 03:41:10;;;;;;;4.00;3.53;;;21.50;99.90;;;;;;4951988;28;20044;-81
2023/08/19 03:43:36;;;;;;;3.42;3.13;;;21.50;99.90;;;;;;4953983;28;20460;-80
2023/08/19 03:46:02;;;;;;;4.30;3.50;;;21.50;99.90;;;;;;4941988;29;20567;-80
2023/08/19 03:48:28;;;;;;;3.58;3.05;;;21.50;99.90;;;;;;4937585;29;20047;-80
2023/08/19 03:50:54;;;;;;;5.18;3.50;;;21.50;99.90;;;;;;4944968;29;20092;-80
2023/08/19 03:53:19;;;;;;;3.88;3.50;;;21.50;99.90;;;;;;4947788;29;20032;-81
2023/08/19 03:55:48;;;;;;;4.10;2.78;;;21.50;99.90;;;;;;4940880;28;20081;-80
2023/08/19 03:58:14;;;;;;;3.50;2.97;;;21.60;99.90;;;;;;4948673;29;20126;-81
2023/08/19 04:00:39;;;;;;;3.63;3.20;;;21.70;99.90;;;;;;4946859;29;20442;-81
2023/08/19 04:03:06;;;;;;;5.78;3.20;;;21.60;99.90;;;;;;4946768;28;20071;-80
2023/08/19 04:05:32;;;;;;;5.88;3.65;;;21.70;99.90;;;;;;4945079;28;20067;-81
2023/08/19 04:07:58;;;;;;;7.05;3.22;;;21.70;99.90;;;;;;4926713;29;20042;-81
2023/08/19 04:10:24;;;;;;;3.45;3.13;;;21.70;99.90;;;;;;4945503;29;20043;-81
2023/08/19 04:12:50;;;;;;;7.47;3.33;;;21.70;99.90;;;;;;4946652;29;20020;-81
2023/08/19 04:15:17;;;;;;;4.35;3.28;;;21.80;99.90;;;;;;4944541;29;20476;-80
2023/08/19 04:17:43;;;;;;;4.03;3.58;;;21.80;99.90;;;;;;4934170;29;20038;-81
2023/08/19 04:20:09;;;;;;;3.47;3.17;;;21.80;99.90;;;;;;4942146;29;20031;-81
2023/08/19 04:22:40;;;;;;;7.55;3.20;;;21.80;99.90;;;;;;4942605;29;20054;-81
2023/08/19 04:25:06;;;;;;;3.58;3.05;;;21.80;99.90;;;;;;4940841;29;20087;-81
2023/08/19 04:27:32;;;;;;;3.72;2.95;;;21.90;99.90;;;;;;4943431;29;20456;-80
2023/08/19 04:29:58;;;;;;;4.00;3.10;;;21.90;99.90;;;;;;4948153;28;20551;-81
2023/08/19 04:32:24;;;;;;;3.33;2.97;;;21.90;99.90;;;;;;4945455;29;20031;-81
2023/08/19 04:34:50;;;;;;;4.15;2.75;;;21.90;99.90;;;;;;4942422;28;20044;-81
2023/08/19 04:37:16;;;;;;;3.90;2.65;;;21.90;99.90;;;;;;4940802;29;20471;-81
2023/08/19 04:39:42;;;;;;;7.88;2.85;;;21.90;99.90;;;;;;4944823;29;20027;-81
2023/08/19 04:42:15;;;;;;;3.30;2.45;;;21.90;99.90;;;;;;4947138;28;20085;-81
2023/08/19 04:44:40;;;;;;;3.13;2.50;;;21.90;99.90;;;;;;4946131;28;20448;-81
2023/08/19 04:47:06;;;;;;;4.07;2.22;;;22.00;99.90;;;;;;4931217;29;20031;-81
2023/08/19 04:49:32;;;;;;;2.60;2.00;;;22.00;99.90;;;;;;4940044;29;20027;-81
2023/08/19 04:51:58;;;;;;;3.17;2.20;;;22.00;99.90;;;;;;4936020;29;20027;-81
2023/08/19 04:54:25;;;;;;;3.67;2.00;;;22.00;99.90;;;;;;4942331;29;20050;-81
2023/08/19 04:56:51;;;;;;;3.20;1.95;;;22.00;99.90;;;;;;4942298;29;20027;-81
2023/08/19 04:59:17;;;;;;;2.38;2.00;;;22.00;99.90;;;;;;4947030;28;20390;-80
2023/08/19 05:01:42;;;;;;;3.42;2.13;;;22.00;99.90;;;;;;4942817;29;20046;-81
2023/08/19 05:04:08;;;;;;;3.30;2.25;;;22.00;99.90;;;;;;4940164;29;20047;-81
2023/08/19 05:06:34;;;;;;;3.50;1.95;;;22.00;99.90;;;;;;4942154;29;20047;-81
2023/08/19 05:09:00;;;;;;;3.47;1.73;;;22.10;99.90;;;;;;4939531;28;20031;-80
2023/08/19 05:11:26;;;;;;;2.92;1.95;;;22.10;99.90;;;;;;4940327;28;20468;-81
2023/08/19 05:13:55;;;;;;;3.85;1.77;;;22.10;99.90;;;;;;4943531;28;20498;-81
2023/08/19 05:16:21;;;;;;;2.95;1.60;;;22.10;99.90;;;;;;4945879;29;20028;-81
2023/08/19 05:19:03;;;;;;;4.35;2.10;;;22.10;99.90;;;;;;4943643;29;20031;-81
2023/08/19 05:21:28;;;;;;;2.88;1.85;;;22.20;99.90;;;;;;4946582;29;20453;-81
2023/08/19 05:23:54;;;;;;;3.40;1.50;;;22.20;99.90;;;;;;4945489;28;20042;-81
2023/08/19 05:26:19;;;;;;;2.17;1.45;;;22.10;99.90;;;;;;4939364;29;20035;-81
2023/08/19 05:28:45;;;;;;;3.78;1.65;;;22.10;99.90;;;;;;4938567;28;20106;-80
2023/08/19 05:31:11;;;;;;;3.17;1.52;;;22.10;99.90;;;;;;4942738;29;20373;-81
2023/08/19 05:33:36;;;;;;;4.25;1.90;;;22.10;99.90;;;;;;4944096;28;20121;-81
2023/08/19 05:36:02;;;;;;;4.15;1.98;;;22.20;99.90;;;;;;4948493;29;20034;-81
2023/08/19 05:38:28;;;;;;;3.03;1.70;;;22.20;99.90;;;;;;4939959;28;20468;-81
2023/08/19 05:40:54;;;;;;;3.60;1.30;;;22.30;99.90;;;;;;4940071;28;20027;-81
2023/08/19 05:43:19;;;;;;;2.30;1.60;;;22.30;99.90;;;;;;4943423;29;20409;-81
2023/08/19 05:45:45;;;;;;;2.50;1.75;;;22.40;99.90;;;;;;4939104;29;20099;-81
2023/08/19 05:48:11;;;;;;;3.78;1.77;;;22.40;99.90;;;;;;4939516;29;20591;-81
2023/08/19 05:50:36;;;;;;;4.28;1.83;;;22.50;99.90;;;;;;4945465;28;20044;-81
2023/08/19 05:53:02;;;;;;;3.50;1.85;;;22.50;99.90;;;;;;4946429;28;20032;-80
2023/08/19 05:55:28;;;;;;;3.42;1.20;;;22.50;99.90;;;;;;4946106;29;20041;-81
2023/08/19 05:57:54;;;;;;;1.90;1.35;;;22.50;99.90;;;;;;4943357;28;20024;-80
2023/08/19 06:00:22;;;;;;;2.53;1.83;;;22.50;99.90;;;;;;4947565;28;20472;-81
2023/08/19 06:02:47;;;;;;;2.45;1.65;;;22.50;99.90;;;;;;4937139;29;20020;-81
2023/08/19 06:05:13;;;;;;;3.88;1.50;;;22.60;99.90;;;;;;4938666;29;20423;-81
2023/08/19 06:07:39;;;;;;;1.90;1.35;;;22.60;99.90;;;;;;4941952;29;20119;-80
2023/08/19 06:10:06;;;;;;;2.78;1.15;;;22.50;99.90;;;;;;4953349;28;20395;-81
2023/08/19 06:12:31;;;;;;;3.28;1.67;;;22.60;99.90;;;;;;4946216;28;20035;-81
2023/08/19 06:14:57;;;;;;;4.72;1.20;;;22.60;99.90;;;;;;4943968;29;20036;-81
2023/08/19 06:17:23;;;;;;;1.65;1.00;;;22.70;99.90;;;;;;4940020;29;20534;-81
2023/08/19 06:19:48;;;;;;;2.08;1.08;;;22.80;99.90;;;;;;4943768;29;20062;-81
2023/08/19 06:22:14;;;;;;;2.15;1.17;;;22.80;99.90;;;;;;4935894;29;20503;-81
2023/08/19 06:24:40;;;;;;;2.92;1.20;;;22.90;99.90;;;;;;4940787;29;20071;-81
2023/08/19 06:27:05;;;;;;;3.50;1.10;;;22.90;99.90;;;;;;4930142;29;20039;-81
2023/08/19 06:29:32;;;;;;;2.88;1.30;;;23.00;99.90;;;;;;4941432;29;20027;-80
2023/08/19 06:31:57;;;;;;;2.15;1.10;;;23.00;99.90;;;;;;4939970;29;20524;-81
2023/08/19 06:34:23;;;;;;;3.00;1.20;;;23.10;99.90;;;;;;4946083;28;20042;-81
2023/08/19 06:36:52;;;;;;;1.67;1.05;;;23.20;99.90;;;;;;4946752;28;20034;-80
2023/08/19 06:39:27;;;;;;;2.20;1.40;;;23.30;99.90;;;;;;4945957;28;20472;-80
2023/08/19 06:42:02;;;;;;;2.70;1.30;;;23.30;99.90;;;;;;4942360;28;20576;-81
2023/08/19 06:44:32;;;;;;;2.25;1.00;;;23.10;99.90;;;;;;4942369;29;20027;-81
2023/08/19 06:47:00;;;;;;;3.95;1.35;;;23.10;99.90;;;;;;4956627;28;20330;-82
2023/08/19 06:49:26;;;;;;;2.88;1.45;;;23.10;99.90;;;;;;4947677;28;20031;-81
2023/08/19 06:51:52;;;;;;;2.85;1.40;;;23.10;99.90;;;;;;4945078;28;20031;-81
2023/08/19 06:54:18;;;;;;;2.00;1.25;;;23.10;99.90;;;;;;4945676;29;20050;-81
2023/08/19 06:56:53;;;;;;;2.30;1.20;;;23.10;99.90;;;;;;4951876;28;20042;-82
2023/08/19 06:59:35;;;;;;;2.85;1.02;;;23.10;99.90;;;;;;4947011;29;20032;-82
2023/08/19 07:02:02;;;;;;;2.92;1.02;;;23.20;99.90;;;;;;4935833;29;20035;-80
2023/08/19 07:04:29;;;;;;;5.00;1.00;;;23.20;99.90;;;;;;4941896;28;20047;-81
2023/08/19 07:07:00;;;;;;;2.42;1.00;;;23.20;99.90;;;;;;4940972;28;20122;-81
2023/08/19 07:09:26;;;;;;;1.55;0.98;;;23.30;99.90;;;;;;4944406;28;20416;-81
2023/08/19 07:11:56;;;;;;;2.95;0.88;;;23.30;99.90;;;;;;4945699;29;20027;-81
2023/08/19 07:14:24;;;;;;;2.58;1.00;;;23.40;99.90;;;;;;4956528;28;20032;-81
2023/08/19 07:16:50;;;;;;;2.67;1.08;;;23.50;99.90;;;;;;4942069;29;20223;-81
2023/08/19 07:19:25;;;;;;;5.30;0.98;;;23.50;99.90;;;;;;4927236;29;20042;-81
2023/08/19 07:21:53;;;;;;;2.80;0.93;;;23.60;99.90;;;;;;4946132;28;20023;-82
2023/08/19 07:24:19;;;;;;;3.20;0.95;;;23.50;99.90;;;;;;4954908;28;20044;-82
2023/08/19 07:26:46;;;;;;;2.50;1.05;;;23.60;99.90;;;;;;4945881;28;20163;-81
2023/08/19 07:29:12;;;;;;;1.95;0.90;;;23.60;99.90;;;;;;4949489;28;20106;-81
2023/08/19 07:31:40;;;;;;;3.75;1.35;;;23.70;99.90;;;;;;4943917;29;20698;-82
2023/08/19 07:34:06;;;;;;;2.58;1.52;;;23.70;99.90;;;;;;4944292;28;20387;-81
2023/08/19 07:36:31;;;;;;;4.95;1.23;;;23.80;99.90;;;;;;4947245;29;20130;-82
2023/08/19 07:38:57;;;;;;;2.10;1.00;;;23.90;99.90;;;;;;4945249;29;20485;-82
2023/08/19 07:41:23;;;;;;;3.00;1.08;;;24.00;99.90;;;;;;4949425;29;20102;-81
2023/08/19 07:43:49;;;;;;;2.88;1.20;;;24.00;99.90;;;;;;4955600;28;20036;-82
2023/08/19 07:46:17;;;;;;;3.78;1.02;;;24.10;99.90;;;;;;4945158;29;20023;-81
2023/08/19 07:48:44;;;;;;;2.47;1.45;;;24.10;99.90;;;;;;4939612;29;20118;-81
2023/08/19 07:51:11;;;;;;;2.90;0.98;;;24.10;99.90;;;;;;4947178;28;20039;-81
2023/08/19 07:53:36;;;;;;;2.00;1.08;;;24.20;99.90;;;;;;4932778;29;20038;-81
2023/08/19 07:56:03;;;;;;;2.80;0.88;;;24.30;99.90;;;;;;4938910;28;20469;-82
2023/08/19 07:58:29;;;;;;;3.22;1.38;;;24.30;99.90;;;;;;4944142;29;20429;-82
2023/08/19 08:00:55;;;;;;;3.10;1.40;;;24.40;99.90;;;;;;4925266;29;20036;-81
2023/08/19 08:03:20;;;;;;;1.95;1.00;;;24.40;99.90;;;;;;4941856;29;20428;-81
2023/08/19 08:05:46;;;;;;;2.17;1.27;;;24.40;99.90;;;;;;4941174;29;20036;-80
2023/08/19 08:08:12;;;;;;;2.67;1.13;;;24.60;99.90;;;;;;4941176;29;20214;-81
2023/08/19 08:10:39;;;;;;;2.70;1.13;;;24.70;99.90;;;;;;4949261;28;20400;-80
2023/08/19 08:13:05;;;;;;;2.25;1.05;;;24.80;99.90;;;;;;4928208;29;20185;-81
2023/08/19 08:15:30;;;;;;;2.17;1.02;;;24.80;99.90;;;;;;4946663;29;20023;-81
2023/08/19 08:17:56;;;;;;;5.28;2.00;;;24.90;99.90;;;;;;4955992;28;20055;-82
2023/08/19 08:20:22;;;;;;;4.45;1.70;;;24.80;99.90;;;;;;4937928;28;20044;-81
2023/08/19 08:22:48;;;;;;;2.72;1.23;;;24.90;99.90;;;;;;4940678;29;20095;-81
2023/08/19 08:25:13;;;;;;;2.17;1.08;;;25.20;99.90;;;;;;4943977;29;20133;-81
2023/08/19 08:27:39;;;;;;;2.03;0.95;;;25.40;99.90;;;;;;4942655;29;20032;-81
2023/08/19 08:30:05;;;;;;;3.08;1.02;;;25.60;99.90;;;;;;4948084;28;20027;-81
2023/08/19 08:32:31;;;;;;;5.68;1.58;;;25.60;99.90;;;;;;4943835;28;20059;-81
2023/08/19 08:34:57;;;;;;;3.17;1.38;;;25.50;99.90;;;;;;4941507;29;20456;-81
2023/08/19 08:37:22;;;;;;;2.40;1.17;;;25.60;99.90;;;;;;4942731;28;20156;-82
2023/08/19 08:39:48;;;;;;;3.83;1.10;;;25.90;99.90;;;;;;4928639;29;20480;-84
2023/08/19 08:42:15;;;;;;;2.75;0.93;;;26.20;99.90;;;;;;4941607;29;20078;-82
2023/08/19 08:44:44;;;;;;;4.95;1.52;;;26.30;99.90;;;;;;4942246;28;20039;-86
2023/08/19 08:47:11;;;;;;;7.45;1.85;;;26.20;99.90;;;;;;4940177;29;20027;-81
2023/08/19 08:49:37;;;;;;;7.65;2.00;;;26.30;99.90;;;;;;4942012;29;20035;-84
2023/08/19 08:52:04;;;;;;;10.32;3.38;;;26.20;99.90;;;;;;4945034;28;20119;-81
2023/08/19 08:54:32;;;;;;;11.13;4.55;;;26.50;99.90;;;;;;4955029;28;20024;-87
2023/08/19 08:57:01;;;;;;;7.18;2.90;;;26.50;99.90;;;;;;4952032;28;20507;-81
2023/08/19 08:59:30;;;;;;;4.05;1.88;;;26.60;99.90;;;;;;4941204;29;20046;-81
2023/08/19 09:01:58;;;;;;;15.52;2.72;;;26.70;99.90;;;;;;4942710;28;20066;-81
2023/08/19 09:04:26;;;;;;;11.43;2.42;;;26.60;99.90;;;;;;4957284;28;20047;-81
2023/08/19 09:07:00;;;;;;;6.30;1.85;;;26.50;99.90;;;;;;4944319;29;20086;-81
2023/08/19 09:09:30;;;;;;;5.10;1.65;;;26.40;99.90;;;;;;4954504;28;20419;-81
2023/08/19 09:11:57;;;;;;;2.03;1.10;;;26.30;99.90;;;;;;4942772;29;20038;-82
2023/08/19 09:14:28;;;;;;;2.45;1.13;;;26.30;99.90;;;;;;4944224;29;20074;-81
2023/08/19 09:16:54;;;;;;;3.20;1.27;;;26.20;99.90;;;;;;4954975;28;20040;-84
2023/08/19 09:19:20;;;;;;;2.95;1.25;;;26.10;99.90;;;;;;4944167;29;20058;-81
2023/08/19 09:21:45;;;;;;;2.20;1.50;;;25.90;99.90;;;;;;4940020;29;20053;-80
2023/08/19 09:24:18;;;;;;;2.90;1.50;;;25.70;99.90;;;;;;4927521;28;20094;-81
2023/08/19 09:26:45;;;;;;;2.60;1.42;;;25.70;99.90;;;;;;4915185;29;20036;-80
2023/08/19 09:29:11;;;;;;;2.65;2.10;;;25.80;99.90;;;;;;4928002;29;20158;-81
2023/08/19 09:31:40;;;;;;;3.72;1.90;;;25.70;99.90;;;;;;4925872;29;20067;-81
2023/08/19 09:34:06;;;;;;;2.63;1.63;;;25.50;99.90;;;;;;4922045;29;20040;-81
2023/08/19 09:36:31;;;;;;;2.75;2.28;;;25.60;99.90;;;;;;4925774;29;20400;-81
2023/08/19 09:38:57;;;;;;;3.35;2.20;;;25.50;99.90;;;;;;4926553;29;20146;-81
2023/08/19 09:41:28;;;;;;;3.33;1.95;;;25.50;99.90;;;;;;4915381;29;20035;-81
2023/08/19 09:43:55;;;;;;;2.15;1.58;;;25.60;99.90;;;;;;4922035;29;20109;-81
2023/08/19 09:46:29;;;;;;;3.60;2.33;;;25.50;99.90;;;;;;4908012;29;20090;-81
2023/08/19 09:48:55;;;;;;;2.83;1.92;;;25.40;99.90;;;;;;4925515;29;20052;-80
2023/08/19 09:51:23;;;;;;;3.30;2.60;;;25.40;99.90;;;;;;4910609;29;20172;-83
2023/08/19 09:53:49;;;;;;;4.30;2.88;;;25.10;99.90;;;;;;4908118;29;20475;-81
2023/08/19 09:56:33;;;;;;;5.00;2.15;;;25.10;99.90;;;;;;4918553;29;20045;-81
2023/08/19 09:58:58;;;;;;;2.90;2.45;;;25.10;99.90;;;;;;4928576;29;20536;-82
2023/08/19 10:01:25;;;;;;;3.35;2.03;;;25.10;99.90;;;;;;4908807;29;20761;-82
2023/08/19 10:03:52;;;;;;;5.10;2.70;;;25.10;99.90;;;;;;4924615;29;20051;-82
2023/08/19 10:06:24;;;;;;;4.82;2.33;;;25.00;99.90;;;;;;4922125;29;20036;-82
2023/08/19 10:08:52;;;;;;;2.53;1.83;;;25.00;99.90;;;;;;4921094;29;20031;-80
2023/08/19 10:11:19;;;;;;;3.03;2.67;;;25.00;99.90;;;;;;4907116;29;20039;-81
2023/08/19 10:13:46;;;;;;;3.92;2.20;;;25.00;99.90;;;;;;4917955;28;20292;-82
2023/08/19 10:16:16;;;;;;;4.25;2.70;;;25.10;99.90;;;;;;4917880;29;20575;-81
2023/08/19 10:18:45;;;;;;;9.90;3.97;;;25.30;99.90;;;;;;4924631;29;20047;-81
2023/08/19 10:21:14;;;;;;;7.05;4.38;;;25.40;99.90;;;;;;4907859;29;20462;-82
2023/08/19 10:23:45;;;;;;;6.65;5.70;;;25.70;99.90;;;;;;4911818;29;20040;-82
2023/08/19 10:26:14;;;;;;;7.50;4.57;;;25.90;99.90;;;;;;4918195;29;21145;-81
2023/08/19 10:28:40;;;;;;;6.57;5.18;;;26.60;99.90;;;;;;4906715;28;20043;-82
2023/08/19 10:31:05;;;;;;;6.05;4.68;;;26.90;99.90;;;;;;4927057;28;20031;-82
2023/08/19 10:33:46;;;;;;;7.20;5.95;;;26.90;99.90;;;;;;4944213;28;20492;-81
2023/08/19 10:36:16;;;;;;;7.72;6.40;;;26.60;99.90;;;;;;4955923;28;20037;-82
2023/08/19 10:38:43;;;;;;;7.95;5.15;;;26.50;99.90;;;;;;4958845;28;20023;-82
2023/08/19 10:41:20;;;;;;;7.75;6.18;;;26.60;99.90;;;;;;4935801;28;20528;-81
2023/08/19 10:43:59;;;;;;;6.13;4.70;;;26.70;99.90;;;;;;4955550;28;20118;-81
2023/08/19 10:46:37;;;;;;;8.23;7.13;;;27.00;99.90;;;;;;4946691;28;20740;-82
2023/08/19 10:49:14;;;;;;;9.13;6.13;;;26.90;99.90;;;;;;4956343;28;20167;-82
2023/08/19 10:52:00;;;;;;;8.00;6.70;;;27.20;99.90;;;;;;4960059;28;20067;-82
2023/08/19 10:54:30;;;;;;;7.45;6.78;;;27.60;99.90;;;;;;4943943;28;20453;-81
2023/08/19 10:57:22;;;;;;;8.70;6.90;;;28.10;99.90;;;;;;4931100;28;20030;-80
2023/08/19 10:59:54;;;;;;;10.02;7.13;;;28.20;99.90;;;;;;4944803;28;20045;-82
2023/08/19 11:02:20;;;;;;;8.68;6.32;;;27.70;99.90;;;;;;4944042;28;20097;-82
2023/08/19 11:04:47;;;;;;;5.30;4.78;;;27.70;99.90;;;;;;4944809;28;20471;-82
2023/08/19 11:07:13;;;;;;;8.82;7.82;;;27.90;99.90;;;;;;4956270;28;20372;-82
2023/08/19 11:09:44;;;;;;;8.43;7.45;;;27.60;99.90;;;;;;4944857;28;20030;-81
2023/08/19 11:12:11;;;;;;;11.10;8.45;;;27.50;99.90;;;;;;4942301;28;20031;-83
2023/08/19 11:14:38;;;;;;;11.20;8.00;;;27.50;99.90;;;;;;4934532;28;20518;-82
2023/08/19 11:17:03;;;;;;;12.60;10.27;;;27.80;99.90;;;;;;4943929;28;20044;-80
2023/08/19 11:19:31;;;;;;;8.93;6.47;;;27.80;99.90;;;;;;4943075;28;20043;-82
2023/08/19 11:21:57;;;;;;;14.48;9.77;;;27.90;99.90;;;;;;4945525;28;20039;-82
2023/08/19 11:24:33;;;;;;;13.23;10.55;;;27.60;99.90;;;;;;4943220;28;20046;-81
2023/08/19 11:27:00;;;;;;;14.15;10.38;;;27.40;99.90;;;;;;4945022;28;20035;-82
2023/08/19 11:29:27;;;;;;;11.73;10.52;;;27.40;99.90;;;;;;4943954;28;20128;-82
2023/08/19 11:31:53;;;;;;;11.63;10.30;;;27.40;99.90;;;;;;4944714;28;20407;-81
2023/08/19 11:34:18;;;;;;;12.65;10.48;;;27.50;99.90;;;;;;4935448;28;20069;-81
2023/08/19 11:36:45;;;;;;;9.93;8.93;;;27.40;99.90;;;;;;4942378;28;20041;-81
2023/08/19 11:39:12;;;;;;;13.57;12.18;;;27.50;99.90;;;;;;4934601;28;20108;-81
2023/08/19 11:41:38;;;;;;;15.05;12.70;;;27.30;99.90;;;;;;4944219;28;20034;-83
2023/08/19 11:44:06;;;;;;;11.27;9.00;;;27.20;99.90;;;;;;4930408;28;20105;-83
2023/08/19 11:46:34;;;;;;;14.93;12.77;;;27.10;99.90;;;;;;4936393;28;20157;-82
2023/08/19 11:49:10;;;;;;;15.18;13.23;;;26.80;99.90;;;;;;4962219;28;20035;-83
2023/08/19 11:51:37;;;;;;;17.85;16.02;;;26.60;99.90;;;;;;4960775;28;20034;-83
2023/08/19 11:54:06;;;;;;;14.10;12.70;;;26.50;99.90;;;;;;4963010;28;20139;-83
2023/08/19 11:56:52;;;;;;;19.43;17.40;;;26.40;99.90;;;;;;4939918;28;20053;-83
2023/08/19 11:59:27;;;;;;;21.85;19.55;;;26.30;99.90;;;;;;4963494;28;20054;-83
2023/08/19 12:01:53;;;;;;;20.80;18.63;;;26.30;99.90;;;;;;4963146;28;20106;-83
2023/08/19 12:04:19;;;;;;;14.88;13.48;;;26.20;99.90;;;;;;4958720;28;20407;-82
2023/08/19 12:06:47;;;;;;;17.90;15.75;;;26.30;99.90;;;;;;4944266;28;20038;-82
2023/08/19 12:09:18;;;;;;;24.13;21.67;;;26.20;99.90;;;;;;4951955;28;20125;-81
2023/08/19 12:11:47;;;;;;;22.92;20.63;;;26.00;99.90;;;;;;4939204;28;20554;-83
2023/08/19 12:14:12;;;;;;;22.88;20.45;;;25.70;99.90;;;;;;4945133;28;20059;-82
2023/08/19 12:16:38;;;;;;;24.30;21.75;;;25.60;99.90;;;;;;4928379;28;20517;-83
2023/08/19 12:19:04;;;;;;;22.23;18.77;;;25.60;99.90;;;;;;4952968;28;20062;-83
2023/08/19 12:21:29;;;;;;;21.05;18.88;;;25.50;99.90;;;;;;4942134;28;20027;-83
2023/08/19 12:23:55;;;;;;;24.67;20.17;;;25.40;99.90;;;;;;4946102;28;20038;-83
2023/08/19 12:26:21;;;;;;;18.40;16.50;;;25.40;99.90;;;;;;4963519;28;20023;-83
2023/08/19 12:28:47;;;;;;;17.73;15.93;;;25.40;99.90;;;;;;4961939;28;20523;-83
2023/08/19 12:31:13;;;;;;;21.70;19.50;;;25.30;99.90;;;;;;4954900;28;20043;-83
2023/08/19 12:33:42;;;;;;;20.58;18.38;;;25.10;99.90;;;;;;4972126;28;20027;-83
2023/08/19 12:36:08;;;;;;;18.33;16.50;;;25.00;99.90;;;;;;4956019;28;20031;-83
2023/08/19 12:38:33;;;;;;;15.60;14.00;;;25.00;99.90;;;;;;4961116;28;20377;-83
2023/08/19 12:40:59;;;;;;;12.77;11.48;;;24.80;99.90;;;;;;4946174;28;20093;-83
2023/08/19 12:43:25;;;;;;;11.90;10.23;;;24.80;99.90;;;;;;4962278;28;20042;-82
2023/08/19 12:45:51;;;;;;;9.90;8.80;;;24.70;99.90;;;;;;4943657;28;20062;-84
2023/08/19 12:48:16;;;;;;;8.55;7.65;;;24.70;99.90;;;;;;4941923;28;20139;-84